Main page
METAR-TAF:

METAR-TAF

Airports :

Liverpool John Lennon Airport

Liverpool, England

latitude: 53-20N, longitude: 002-51W, elevation: 26 m

Current weather observation

The report was made 19 minutes ago, at 00:20 UTC
Wind 11 kt from the East/Northeast
Temperature 12°C
Humidity 71%
Pressure 1025 hPa
Visibility 10 km or more
no clouds below 1500 m and no cumulonimbus

METAR: EGGP 240020Z 06011KT CAVOK 12/07 Q1025

Time: 01:39 (00:39 UTC)

Forecast

The report was made 1 hour and 40 minutes ago, at 22:59 UTC
Forecast valid from 24 at 00 UTC to 24 at 24 UTC
Wind 9 kt from the East/Northeast
Visibility 10 km or more
Few clouds at a height of 4500 ft

TAF: EGGP 232259Z 2400/2424 07009KT 9999 FEW045

Weather observations and forecasts of more than 4000 airports (METAR and TAF reports).

The available stations are represented by yellow and red dots on the map.

Hover mouse over dot to see the name of the station.

Then click to see weather observations and forecasts.

To change the map : click on the green buttons with a black cross to zoom in, on the green button with a dash to zoom out, or on the green arrows for adjacent maps.


METAR-TAF: